Tyhee, Idaho
Current Conditions -  °F | °C
As of 12:53 PM on Saturday 25 Oct 2014 (Local Time) from KPIH Reporting Station
Clear Clear  
Wind Chill: 75°   Ceiling: Unl
Heat Index: 75°   Visibility: 10mi
Dew Point: 29°   Wind: 30mph
Humidity: 18%   Direction: 180°S
Pressure: 29.94"   Gusts: 44mph
Location:  42.8976°N, 112.37°W
Report Text: KPIH 251853Z 18026G38KT 10SM CLR 24/M02 A2994 RMK AO2 PK WND 17038/1845 SLP106 T02391017
Loading
Personal Weather Stations






























Interactive Weather Map
Tropical Storm Tracking
New forecast layout! Learn more

10-Day Weather Forecast

Advertisements
Track Severe Weather on mobile